createdAt,value
2023-03-25T00:02:27.496Z,98605.72
2023-03-25T00:04:56.487Z,98600.34
2023-03-25T00:07:24.743Z,98597.88
2023-03-25T00:09:52.857Z,98596.03
2023-03-25T00:12:20.935Z,98602.00
2023-03-25T00:14:55.082Z,98598.53
2023-03-25T00:17:23.812Z,98595.38
2023-03-25T00:19:52.180Z,98584.66
2023-03-25T00:22:20.866Z,98593.34
2023-03-25T00:24:49.468Z,98592.50
2023-03-25T00:27:18.692Z,98570.25
2023-03-25T00:29:47.918Z,98586.31
2023-03-25T00:32:21.051Z,98582.66
2023-03-25T00:34:49.125Z,98576.44
2023-03-25T00:37:18.421Z,98583.47
2023-03-25T00:39:46.981Z,98577.28
2023-03-25T00:42:17.517Z,98578.94
2023-03-25T00:44:45.561Z,98572.94
2023-03-25T00:47:18.425Z,98579.31
2023-03-25T00:49:47.840Z,98576.28
2023-03-25T00:52:16.108Z,98563.25
2023-03-25T00:54:45.922Z,98572.94
2023-03-25T00:57:14.149Z,98571.94
2023-03-25T00:59:42.175Z,98575.63
2023-03-25T01:02:10.502Z,98570.25
2023-03-25T01:04:41.588Z,98564.91
2023-03-25T01:07:12.697Z,98571.94
2023-03-25T01:09:41.726Z,98561.22
2023-03-25T01:12:10.270Z,98568.25
2023-03-25T01:14:38.326Z,98568.41
2023-03-25T01:17:07.069Z,98563.91
2023-03-25T01:19:35.766Z,98573.59
2023-03-25T01:22:04.321Z,98570.91
2023-03-25T01:24:34.100Z,98568.25
2023-03-25T01:27:02.221Z,98558.75
2023-03-25T01:29:30.754Z,98563.25
2023-03-25T01:31:59.241Z,98571.94
2023-03-25T01:34:27.534Z,98563.25
2023-03-25T01:36:56.445Z,98568.41
2023-03-25T01:39:24.556Z,98564.91
2023-03-25T01:41:55.529Z,98562.41
2023-03-25T01:45:01.444Z,98562.03
2023-03-25T01:47:29.756Z,98555.03
2023-03-25T01:49:58.215Z,98559.56
2023-03-25T01:52:29.848Z,98556.88
2023-03-25T01:54:59.966Z,98564.91
2023-03-25T01:57:31.599Z,98552.56
2023-03-25T02:00:00.125Z,98550.91
2023-03-25T02:02:36.820Z,98550.91
2023-03-25T02:05:10.718Z,98450.25
2023-03-25T02:07:42.918Z,98541.84
2023-03-25T02:10:12.783Z,98548.03
2023-03-25T02:12:45.658Z,98541.84
2023-03-25T02:15:16.429Z,98536.50
2023-03-25T02:18:01.839Z,98535.47
2023-03-25T02:21:08.378Z,98538.16
2023-03-25T02:24:15.995Z,98524.13
2023-03-25T02:27:13.963Z,98527.44
2023-03-25T02:30:14.544Z,98532.16
2023-03-25T02:33:11.484Z,98427.88
2023-03-25T02:35:54.473Z,98522.47
2023-03-25T02:38:38.074Z,98522.47
2023-03-25T02:41:10.566Z,98513.81
2023-03-25T02:43:45.690Z,98515.44
2023-03-25T02:46:18.153Z,98509.25
2023-03-25T02:48:53.922Z,98503.91
2023-03-25T02:51:26.267Z,98510.09
2023-03-25T02:53:59.942Z,98506.41
2023-03-25T02:56:33.031Z,98501.03
2023-03-25T02:59:03.964Z,98494.03
2023-03-25T03:01:34.997Z,98506.41
2023-03-25T03:04:03.609Z,98501.03
2023-03-25T03:06:34.072Z,98497.38
2023-03-25T03:09:28.895Z,98494.69
2023-03-25T03:12:09.929Z,98495.69
2023-03-25T03:14:59.501Z,98502.72
2023-03-25T03:17:36.226Z,98506.78
2023-03-25T03:20:18.086Z,98506.78
2023-03-25T03:22:52.948Z,98512.97
2023-03-25T03:25:31.302Z,98517.94
2023-03-25T03:28:05.835Z,98515.44
2023-03-25T03:30:39.631Z,98517.09
2023-03-25T03:33:13.702Z,98518.13
2023-03-25T03:35:50.350Z,98522.47
2023-03-25T03:38:23.888Z,98517.09
2023-03-25T03:40:57.332Z,98505.59
2023-03-25T03:43:29.971Z,98495.69
2023-03-25T03:46:02.854Z,98494.03
2023-03-25T03:48:38.260Z,98493.03
2023-03-25T03:51:11.914Z,98498.38
2023-03-25T03:53:43.016Z,98489.53
2023-03-25T03:56:16.637Z,98425.03
2023-03-25T03:58:45.046Z,98485.00
2023-03-25T04:01:18.053Z,98481.31
2023-03-25T04:03:52.309Z,98488.31
2023-03-25T04:06:26.842Z,98482.97
2023-03-25T04:08:59.956Z,98477.59
2023-03-25T04:11:37.013Z,98482.97
2023-03-25T04:14:06.902Z,98489.34
2023-03-25T04:16:37.568Z,98476.78
2023-03-25T04:19:06.173Z,98482.97
2023-03-25T04:21:34.971Z,98429.53
2023-03-25T04:24:04.281Z,98473.66
2023-03-25T04:26:37.805Z,98478.81
2023-03-25T04:29:07.615Z,98474.66
2023-03-25T04:31:35.888Z,98472.63
2023-03-25T04:34:04.761Z,98478.00
2023-03-25T04:36:33.747Z,98472.63
2023-03-25T04:39:02.822Z,98467.94
2023-03-25T04:41:32.205Z,98474.28
2023-03-25T04:44:01.817Z,98468.94
2023-03-25T04:46:29.923Z,98468.94
2023-03-25T04:48:58.126Z,98463.56
2023-03-25T04:51:27.105Z,98470.59
2023-03-25T04:53:55.138Z,98464.41
2023-03-25T04:56:23.612Z,98463.56
2023-03-25T04:58:52.727Z,98451.03
2023-03-25T05:01:30.986Z,98458.22
2023-03-25T05:04:05.314Z,98463.56
2023-03-25T05:06:34.620Z,98459.06
2023-03-25T05:09:04.352Z,98462.59
2023-03-25T05:11:34.069Z,98447.53
2023-03-25T05:14:02.283Z,98382.31
2023-03-25T05:16:31.865Z,98451.88
2023-03-25T05:18:59.936Z,98452.69
2023-03-25T05:21:28.037Z,98462.59
2023-03-25T05:23:58.226Z,98461.47
2023-03-25T05:26:29.571Z,98379.84
2023-03-25T05:29:01.651Z,98469.97
2023-03-25T05:31:31.667Z,98478.00
2023-03-25T05:33:59.725Z,98476.78
2023-03-25T05:36:28.165Z,98475.13
2023-03-25T05:38:56.871Z,98418.75
2023-03-25T05:41:32.855Z,98482.69
2023-03-25T05:44:01.486Z,98467.94
2023-03-25T05:46:31.463Z,98350.28
2023-03-25T05:49:01.150Z,98393.69
2023-03-25T05:51:33.953Z,98473.28
2023-03-25T05:54:02.725Z,98475.97
2023-03-25T05:56:31.019Z,98485.63
2023-03-25T05:58:59.183Z,98473.84
2023-03-25T06:01:33.177Z,98488.31
2023-03-25T06:04:03.777Z,98482.97
2023-03-25T06:06:34.406Z,98483.72
2023-03-25T06:09:03.826Z,98503.53
2023-03-25T06:11:38.282Z,98496.91
2023-03-25T06:14:07.837Z,98479.03
2023-03-25T06:16:36.634Z,98497.38
2023-03-25T06:19:06.230Z,98501.03
2023-03-25T06:21:35.292Z,98508.06
2023-03-25T06:24:04.052Z,98507.25
2023-03-25T06:26:33.011Z,98506.41
2023-03-25T06:29:01.253Z,98508.06
2023-03-25T06:31:33.664Z,98500.84
2023-03-25T06:34:03.058Z,98497.38
2023-03-25T06:36:34.854Z,98501.03
2023-03-25T06:39:05.335Z,98502.72
2023-03-25T06:41:35.981Z,98511.75
2023-03-25T06:44:05.140Z,98506.41
2023-03-25T06:46:33.493Z,98495.69
2023-03-25T06:49:01.597Z,98503.09
2023-03-25T06:51:29.858Z,98501.41
2023-03-25T06:53:59.462Z,98512.59
2023-03-25T06:56:27.667Z,98515.44
2023-03-25T06:58:55.803Z,98519.59
2023-03-25T07:01:23.943Z,98518.78
2023-03-25T07:03:52.052Z,98521.47
2023-03-25T07:06:22.914Z,98522.47
2023-03-25T07:08:51.669Z,98510.47
2023-03-25T07:11:26.286Z,98472.88
2023-03-25T07:13:54.490Z,98532.16
2023-03-25T07:16:22.905Z,98527.81
2023-03-25T07:18:52.131Z,98526.81
2023-03-25T07:21:20.443Z,98415.81
2023-03-25T07:23:48.665Z,98527.81
2023-03-25T07:26:16.873Z,98522.47
2023-03-25T07:28:48.160Z,98534.84
2023-03-25T07:31:17.714Z,98526.81
2023-03-25T07:33:46.087Z,98533.16
2023-03-25T07:36:15.145Z,98529.50
2023-03-25T07:38:43.271Z,98534.00
2023-03-25T07:41:13.348Z,98535.84
2023-03-25T07:43:42.997Z,98536.88
2023-03-25T07:46:12.586Z,98539.34
2023-03-25T07:48:41.478Z,98540.56
2023-03-25T07:51:10.170Z,98538.50
2023-03-25T07:53:42.504Z,98536.03
2023-03-25T07:56:11.661Z,98543.88
2023-03-25T07:58:39.929Z,98555.59
2023-03-25T08:01:08.887Z,98450.63
2023-03-25T08:03:39.855Z,98551.91
2023-03-25T08:06:09.479Z,98550.06
2023-03-25T08:08:37.609Z,98557.06
2023-03-25T08:11:06.376Z,98562.59
2023-03-25T08:13:34.548Z,98556.25
2023-03-25T08:16:02.691Z,98552.91
2023-03-25T08:18:30.850Z,98556.25
2023-03-25T08:21:00.349Z,98556.25
2023-03-25T08:23:28.465Z,98561.59
2023-03-25T08:25:56.581Z,98561.78
2023-03-25T08:28:24.776Z,98566.97
2023-03-25T08:30:55.161Z,98560.03
2023-03-25T08:33:27.670Z,98561.59
2023-03-25T08:35:58.832Z,98568.59
2023-03-25T08:38:33.730Z,98567.75
2023-03-25T08:41:02.955Z,98561.59
2023-03-25T08:43:31.025Z,98573.13
2023-03-25T08:45:59.228Z,98405.22
2023-03-25T08:48:27.260Z,98577.66
2023-03-25T08:50:55.325Z,98467.69
2023-03-25T08:53:23.394Z,98570.25
2023-03-25T08:55:56.173Z,98572.31
2023-03-25T08:58:25.701Z,98552.00
2023-03-25T09:00:55.907Z,98577.66
2023-03-25T09:03:27.103Z,98577.66
2023-03-25T09:05:55.269Z,98581.34
2023-03-25T09:08:23.652Z,98574.34
2023-03-25T09:10:53.168Z,98579.31
2023-03-25T09:13:21.309Z,98583.03
2023-03-25T09:15:49.611Z,98580.34
2023-03-25T09:18:17.878Z,98590.03
2023-03-25T09:20:47.787Z,98501.00
2023-03-25T09:23:16.077Z,98588.19
2023-03-25T09:25:44.380Z,98595.38
2023-03-25T09:28:14.745Z,98591.66
2023-03-25T09:30:42.781Z,98597.03
2023-03-25T09:33:10.904Z,98607.09
2023-03-25T09:35:41.348Z,98608.75
2023-03-25T09:38:09.501Z,98617.63
2023-03-25T09:40:39.061Z,98539.75
2023-03-25T09:43:26.374Z,98615.94
2023-03-25T09:45:56.402Z,98604.44
2023-03-25T09:48:32.214Z,98608.09
2023-03-25T09:51:04.562Z,98604.44
2023-03-25T09:53:37.866Z,98597.41
2023-03-25T09:56:12.432Z,98596.59
2023-03-25T09:58:44.773Z,98603.59
2023-03-25T10:01:28.741Z,98579.22
2023-03-25T10:04:09.047Z,98621.47
2023-03-25T10:06:44.728Z,98627.84
2023-03-25T10:09:33.085Z,98627.50
2023-03-25T10:12:10.286Z,98624.53
2023-03-25T10:14:51.322Z,98468.31
2023-03-25T10:17:31.851Z,98635.03
2023-03-25T10:20:08.896Z,98634.88
2023-03-25T10:22:48.688Z,98645.56
2023-03-25T10:25:23.797Z,98544.88
2023-03-25T10:27:53.769Z,98647.25
2023-03-25T10:30:26.419Z,98485.56
2023-03-25T10:32:58.134Z,98582.28
2023-03-25T10:35:30.016Z,98652.59
2023-03-25T10:38:04.818Z,98648.06
2023-03-25T10:40:40.659Z,98654.25
2023-03-25T10:43:19.770Z,98647.25
2023-03-25T10:45:51.225Z,98636.91
2023-03-25T10:48:24.824Z,98643.72
2023-03-25T10:50:54.588Z,98646.41
2023-03-25T10:53:25.958Z,98645.56
2023-03-25T10:55:58.974Z,98641.91
2023-03-25T10:58:28.027Z,98640.22
2023-03-25T11:00:57.473Z,98638.19
2023-03-25T11:03:30.767Z,98648.91
2023-03-25T11:05:58.962Z,98648.91
2023-03-25T11:08:27.382Z,98649.75
2023-03-25T11:10:57.932Z,98650.56
2023-03-25T11:13:27.097Z,98646.22
2023-03-25T11:15:59.850Z,98613.34
2023-03-25T11:18:31.117Z,98649.75
2023-03-25T11:21:02.841Z,98476.50
2023-03-25T11:23:33.865Z,98643.56
2023-03-25T11:26:06.274Z,98638.19
2023-03-25T11:28:40.239Z,98641.91
2023-03-25T11:31:16.371Z,98652.59
2023-03-25T11:33:46.436Z,98657.13
2023-03-25T11:36:23.760Z,98662.28
2023-03-25T11:38:59.728Z,98654.25
2023-03-25T11:41:33.763Z,98653.59
2023-03-25T11:44:02.946Z,98654.25
2023-03-25T11:46:34.234Z,98654.25
2023-03-25T11:49:12.176Z,98644.00
2023-03-25T11:51:40.697Z,98663.31
2023-03-25T11:54:13.026Z,98663.31
2023-03-25T11:56:45.018Z,98659.59
2023-03-25T11:59:23.556Z,98593.88
2023-03-25T12:01:54.161Z,98663.31
2023-03-25T12:04:25.056Z,98666.00
2023-03-25T12:06:59.053Z,98668.66
2023-03-25T12:09:30.444Z,98664.97
2023-03-25T12:12:18.919Z,98673.84
2023-03-25T12:14:57.103Z,98670.31
2023-03-25T12:17:42.026Z,98664.13
2023-03-25T12:20:21.822Z,98666.97
2023-03-25T12:23:01.362Z,98663.69
2023-03-25T12:25:41.058Z,98672.34
2023-03-25T12:28:24.071Z,98663.31
2023-03-25T12:31:01.538Z,98507.84
2023-03-25T12:33:54.631Z,98666.16
2023-03-25T12:36:35.624Z,98665.31
2023-03-25T12:39:17.374Z,98657.13
2023-03-25T12:41:51.372Z,98657.97
2023-03-25T12:44:39.327Z,98662.47
2023-03-25T12:47:19.016Z,98657.97
2023-03-25T12:50:03.060Z,98656.94
2023-03-25T12:52:39.188Z,98654.63
2023-03-25T12:55:36.076Z,98656.09
2023-03-25T12:58:32.016Z,98663.31
2023-03-25T13:01:09.195Z,98657.97
2023-03-25T13:03:51.935Z,98661.63
2023-03-25T13:06:31.290Z,98659.31
2023-03-25T13:09:04.540Z,98664.31
2023-03-25T13:11:39.138Z,98655.47
2023-03-25T13:14:14.110Z,98669.66
2023-03-25T13:16:45.347Z,98658.31
2023-03-25T13:19:18.620Z,98668.66
2023-03-25T13:21:52.821Z,98566.91
2023-03-25T13:24:24.237Z,98659.59
2023-03-25T13:26:54.068Z,98515.06
2023-03-25T13:29:29.148Z,98658.78
2023-03-25T13:32:00.922Z,98659.59
2023-03-25T13:34:35.271Z,98663.31
2023-03-25T13:37:18.073Z,98664.97
2023-03-25T13:39:56.035Z,98670.31
2023-03-25T13:42:29.180Z,98674.00
2023-03-25T13:44:58.870Z,98672.34
2023-03-25T13:47:32.243Z,98674.00
2023-03-25T13:50:07.516Z,98672.16
2023-03-25T13:52:42.871Z,98667.63
2023-03-25T13:55:17.088Z,98670.31
2023-03-25T13:58:14.006Z,98673.00
2023-03-25T14:01:18.024Z,98669.47
2023-03-25T14:04:04.692Z,98588.91
2023-03-25T14:06:53.184Z,98667.81
2023-03-25T14:09:57.864Z,98663.69
2023-03-25T14:12:30.455Z,98672.34
2023-03-25T14:15:02.560Z,98666.97
2023-03-25T14:17:31.703Z,98665.31
2023-03-25T14:20:01.437Z,98666.16
2023-03-25T14:22:32.771Z,98662.00
2023-03-25T14:25:02.583Z,98652.38
2023-03-25T14:27:34.252Z,98663.50
2023-03-25T14:30:06.271Z,98658.13
2023-03-25T14:32:36.642Z,98668.00
2023-03-25T14:35:53.976Z,98674.00
2023-03-25T14:38:54.360Z,98673.19
2023-03-25T14:42:01.918Z,98672.34
2023-03-25T14:44:34.436Z,98676.88
2023-03-25T14:47:25.897Z,98677.06
2023-03-25T14:50:00.576Z,98670.69
2023-03-25T14:52:32.656Z,98689.41
2023-03-25T14:55:08.134Z,98676.03
2023-03-25T14:57:42.927Z,98674.38
2023-03-25T15:00:21.622Z,98701.78
2023-03-25T15:02:54.645Z,98606.38
2023-03-25T15:05:27.513Z,98699.03
2023-03-25T15:08:00.362Z,98712.47
2023-03-25T15:10:31.482Z,98699.09
2023-03-25T15:13:06.803Z,98604.50
2023-03-25T15:16:00.256Z,98706.94
2023-03-25T15:19:01.070Z,98716.00
2023-03-25T15:21:35.042Z,98714.34
2023-03-25T15:24:08.761Z,98721.53
2023-03-25T15:26:40.548Z,98723.19
2023-03-25T15:29:28.529Z,98693.56
2023-03-25T15:32:08.958Z,98715.16
2023-03-25T15:35:01.280Z,98714.34
2023-03-25T15:38:07.940Z,98716.00
2023-03-25T15:41:01.402Z,98711.50
2023-03-25T15:43:59.389Z,98709.81
2023-03-25T15:46:49.907Z,98713.50
2023-03-25T15:49:40.283Z,98710.53
2023-03-25T15:52:36.740Z,98712.22
2023-03-25T15:55:10.640Z,98722.56
2023-03-25T15:57:43.671Z,98714.53
2023-03-25T16:00:18.686Z,98727.91
2023-03-25T16:02:52.629Z,98727.91
2023-03-25T16:05:22.945Z,98724.56
2023-03-25T16:07:52.053Z,98629.56
2023-03-25T16:10:22.353Z,98713.50
2023-03-25T16:12:51.838Z,98715.16
2023-03-25T16:15:27.668Z,98725.88
2023-03-25T16:17:59.593Z,98717.66
2023-03-25T16:20:31.998Z,98716.00
2023-03-25T16:23:03.343Z,98716.84
2023-03-25T16:25:35.724Z,98715.16
2023-03-25T16:28:06.285Z,98724.88
2023-03-25T16:30:37.797Z,98718.69
2023-03-25T16:33:16.948Z,98725.88
2023-03-25T16:35:47.925Z,98716.84
2023-03-25T16:38:18.025Z,98713.50
2023-03-25T16:40:48.113Z,98722.19
2023-03-25T16:43:20.488Z,98726.69
2023-03-25T16:45:50.800Z,98729.19
2023-03-25T16:48:25.038Z,98663.38
2023-03-25T16:50:54.579Z,98736.22
2023-03-25T16:53:25.130Z,98670.44
2023-03-25T16:55:59.504Z,98738.88
2023-03-25T16:58:29.225Z,98736.22
2023-03-25T17:00:59.497Z,98734.56
2023-03-25T17:03:46.515Z,98738.88
2023-03-25T17:06:22.688Z,98741.75
2023-03-25T17:08:51.626Z,98731.56
2023-03-25T17:11:21.006Z,98743.59
2023-03-25T17:13:52.425Z,98744.41
2023-03-25T17:16:22.640Z,98745.25
2023-03-25T17:18:54.363Z,98668.16
2023-03-25T17:21:27.244Z,98750.59
2023-03-25T17:23:56.467Z,98755.97
2023-03-25T17:26:26.681Z,98766.66
2023-03-25T17:29:02.165Z,98764.00
2023-03-25T17:31:34.883Z,98762.97
2023-03-25T17:34:07.518Z,98755.97
2023-03-25T17:36:38.001Z,98755.97
2023-03-25T17:39:14.477Z,98766.66
2023-03-25T17:41:42.803Z,98766.66
2023-03-25T17:44:17.135Z,98757.63
2023-03-25T17:46:45.626Z,98755.13
2023-03-25T17:49:18.425Z,98688.88
2023-03-25T17:51:47.640Z,98750.97
2023-03-25T17:54:15.890Z,98738.03
2023-03-25T17:56:44.174Z,98763.16
2023-03-25T17:59:16.994Z,98762.97
2023-03-25T18:01:46.412Z,98768.31
2023-03-25T18:04:16.721Z,98765.81
2023-03-25T18:06:45.290Z,98769.34
2023-03-25T18:09:17.864Z,98770.38
2023-03-25T18:11:50.109Z,98764.34
2023-03-25T18:14:18.214Z,98772.03
2023-03-25T18:16:46.539Z,98774.69
2023-03-25T18:19:17.820Z,98772.03
2023-03-25T18:21:46.616Z,98772.03
2023-03-25T18:24:15.406Z,98766.66
2023-03-25T18:26:44.575Z,98776.34
2023-03-25T18:29:14.288Z,98778.41
2023-03-25T18:31:42.425Z,98784.38
2023-03-25T18:34:13.109Z,98779.03
2023-03-25T18:36:43.100Z,98776.53
2023-03-25T18:39:15.039Z,98784.38
2023-03-25T18:41:43.554Z,98788.75
2023-03-25T18:44:12.548Z,98784.38
2023-03-25T18:46:41.705Z,98784.38
2023-03-25T18:49:14.458Z,98796.28
2023-03-25T18:51:43.988Z,98789.75
2023-03-25T18:54:12.091Z,98795.09
2023-03-25T18:56:41.736Z,98793.44
2023-03-25T18:59:10.588Z,98793.44
2023-03-25T19:01:39.359Z,98790.47
2023-03-25T19:04:07.554Z,98798.78
2023-03-25T19:06:38.918Z,98798.97
2023-03-25T19:09:09.511Z,98797.78
2023-03-25T19:11:37.647Z,98798.78
2023-03-25T19:14:05.800Z,98805.00
2023-03-25T19:16:33.867Z,98791.47
2023-03-25T19:19:01.979Z,98803.13
2023-03-25T19:21:30.532Z,98804.16
2023-03-25T19:23:58.671Z,98803.22
2023-03-25T19:26:29.425Z,98803.13
2023-03-25T19:28:57.493Z,98804.16
2023-03-25T19:31:25.649Z,98806.81
2023-03-25T19:33:53.872Z,98798.78
2023-03-25T19:36:23.194Z,98808.66
2023-03-25T19:38:53.241Z,98818.38
2023-03-25T19:41:21.580Z,98834.25
2023-03-25T19:43:51.252Z,98824.72
2023-03-25T19:46:19.388Z,98828.22
2023-03-25T19:48:47.533Z,98822.22
2023-03-25T19:51:15.673Z,98831.75
2023-03-25T19:53:43.690Z,98683.16
2023-03-25T19:56:14.103Z,98859.34
2023-03-25T19:58:42.383Z,98837.91
2023-03-25T20:01:12.352Z,98841.63
2023-03-25T20:03:41.203Z,98834.63
2023-03-25T20:06:09.814Z,98844.28
2023-03-25T20:08:37.999Z,98833.28
2023-03-25T20:11:15.442Z,98841.44
2023-03-25T20:13:43.494Z,98822.56
2023-03-25T20:16:13.484Z,98749.72
2023-03-25T20:18:41.784Z,98844.97
2023-03-25T20:21:10.450Z,98836.25
2023-03-25T20:23:38.578Z,98836.25
2023-03-25T20:26:07.529Z,98840.59
2023-03-25T20:28:37.433Z,98844.97
2023-03-25T20:31:18.738Z,98841.63
2023-03-25T20:33:47.930Z,98855.00
2023-03-25T20:36:16.021Z,98676.22
2023-03-25T20:38:56.126Z,98843.63
2023-03-25T20:41:25.615Z,98760.41
2023-03-25T20:43:53.765Z,98850.66
2023-03-25T20:46:27.525Z,98850.66
2023-03-25T20:48:56.503Z,98857.69
2023-03-25T20:51:25.363Z,98856.03
2023-03-25T20:53:53.781Z,98863.03
2023-03-25T20:56:21.868Z,98867.53
2023-03-25T20:58:50.004Z,98871.41
2023-03-25T21:01:18.694Z,98870.03
2023-03-25T21:03:48.820Z,98868.38
2023-03-25T21:06:24.523Z,98868.38
2023-03-25T21:08:55.940Z,98805.19
2023-03-25T21:11:24.481Z,98879.09
2023-03-25T21:13:52.670Z,98879.09
2023-03-25T21:16:20.890Z,98882.78
2023-03-25T21:18:50.455Z,98884.44
2023-03-25T21:21:19.938Z,98886.09
2023-03-25T21:23:49.348Z,98884.44
2023-03-25T21:26:17.757Z,98883.41
2023-03-25T21:28:45.930Z,98886.09
2023-03-25T21:31:17.281Z,98895.16
2023-03-25T21:33:45.978Z,98893.50
2023-03-25T21:36:17.467Z,98895.16
2023-03-25T21:38:45.981Z,98798.88
2023-03-25T21:41:16.044Z,98899.66
2023-03-25T21:43:45.795Z,98822.59
2023-03-25T21:46:14.633Z,98904.19
2023-03-25T21:48:44.780Z,98897.16
2023-03-25T21:51:14.680Z,98904.19
2023-03-25T21:53:46.474Z,98909.56
2023-03-25T21:56:17.416Z,98829.13
2023-03-25T21:58:47.077Z,98839.25
2023-03-25T22:01:16.988Z,98911.22
2023-03-25T22:03:46.560Z,98914.91
2023-03-25T22:06:17.538Z,98911.22
2023-03-25T22:08:47.446Z,98904.59
2023-03-25T22:11:17.361Z,98905.00
2023-03-25T22:13:46.136Z,98899.66
2023-03-25T22:16:16.874Z,98904.19
2023-03-25T22:18:45.620Z,98902.50
2023-03-25T22:21:15.587Z,98913.22
2023-03-25T22:23:45.772Z,98801.59
2023-03-25T22:26:16.949Z,98918.56
2023-03-25T22:28:47.742Z,98918.56
2023-03-25T22:31:17.799Z,98921.25
2023-03-25T22:33:46.814Z,98919.59
2023-03-25T22:36:17.053Z,98921.25
2023-03-25T22:38:47.994Z,98923.94
2023-03-25T22:41:17.776Z,98902.28
2023-03-25T22:43:46.798Z,98930.13
2023-03-25T22:46:15.651Z,98933.66
2023-03-25T22:48:44.308Z,98940.00
2023-03-25T22:51:14.444Z,98934.63
2023-03-25T22:53:42.944Z,98940.00
2023-03-25T22:56:12.071Z,98938.34
2023-03-25T22:58:42.054Z,98950.69
2023-03-25T23:01:19.634Z,98934.63
2023-03-25T23:03:48.208Z,98932.97
2023-03-25T23:06:16.654Z,98936.50
2023-03-25T23:08:45.513Z,98826.22
2023-03-25T23:11:16.974Z,98834.66
2023-03-25T23:13:49.501Z,98946.34
2023-03-25T23:16:19.695Z,98943.69
2023-03-25T23:18:48.190Z,98946.34
2023-03-25T23:21:18.592Z,98874.75
2023-03-25T23:23:53.261Z,98950.69
2023-03-25T23:26:24.920Z,98915.75
2023-03-25T23:28:56.616Z,98956.41
2023-03-25T23:31:28.214Z,98953.53
2023-03-25T23:33:59.014Z,98964.59
2023-03-25T23:36:28.564Z,98965.09
2023-03-25T23:38:57.051Z,98970.44
2023-03-25T23:41:25.996Z,98973.97
2023-03-25T23:43:56.651Z,98982.81
2023-03-25T23:46:26.386Z,98975.81
2023-03-25T23:48:55.203Z,98972.09
2023-03-25T23:51:24.984Z,98977.47
2023-03-25T23:53:53.835Z,98982.00
2023-03-25T23:56:24.454Z,98982.81
2023-03-25T23:58:53.316Z,98809.81
